createdAt,value
2022-10-09T07:07:08.418Z,3.07
2022-10-09T07:09:35.108Z,3.20
2022-10-09T07:12:01.576Z,3.67
2022-10-09T07:14:29.803Z,3.33
2022-10-09T07:16:56.382Z,3.20
2022-10-09T07:19:23.055Z,3.40
2022-10-09T07:21:50.185Z,3.10
2022-10-09T07:24:17.440Z,3.07
2022-10-09T07:26:45.341Z,2.83
2022-10-09T07:29:14.423Z,3.03
2022-10-09T07:31:41.048Z,3.37
2022-10-09T07:34:07.904Z,3.20
2022-10-09T07:36:39.343Z,3.20
2022-10-09T07:39:06.506Z,3.00
2022-10-09T07:41:33.142Z,2.73
2022-10-09T07:44:02.900Z,3.20
2022-10-09T07:46:33.701Z,3.07
2022-10-09T07:49:01.094Z,2.97
2022-10-09T07:51:29.224Z,3.00
2022-10-09T07:53:57.257Z,3.10
2022-10-09T07:56:37.840Z,3.10
2022-10-09T07:59:06.570Z,3.10
2022-10-09T08:01:35.829Z,2.77
2022-10-09T08:04:03.728Z,3.00
2022-10-09T08:06:30.471Z,2.40
2022-10-09T08:08:59.720Z,2.87
2022-10-09T08:11:27.171Z,3.23
2022-10-09T08:13:54.032Z,3.10
2022-10-09T08:16:25.055Z,2.90
2022-10-09T08:18:56.033Z,2.87
2022-10-09T08:21:23.639Z,2.70
2022-10-09T08:23:54.677Z,3.10
2022-10-09T08:26:24.075Z,2.77
2022-10-09T08:28:55.097Z,2.90
2022-10-09T08:31:22.658Z,2.90
2022-10-09T08:33:51.926Z,2.70
2022-10-09T08:36:18.490Z,2.70
2022-10-09T08:38:47.935Z,2.70
2022-10-09T08:44:28.023Z,2.50
2022-10-09T08:47:06.963Z,2.83
2022-10-09T08:49:52.703Z,3.03
2022-10-09T08:55:15.355Z,2.53
2022-10-09T08:57:50.546Z,2.37
2022-10-09T09:00:18.487Z,2.60
2022-10-09T09:02:48.329Z,2.23
2022-10-09T09:05:23.002Z,2.60
2022-10-09T09:07:59.684Z,2.97
2022-10-09T09:10:41.795Z,2.57
2022-10-09T09:13:19.667Z,2.97
2022-10-09T09:15:55.150Z,2.60
2022-10-09T09:18:21.926Z,2.53
2022-10-09T09:20:53.415Z,2.63
2022-10-09T09:23:24.144Z,2.50
2022-10-09T09:25:51.077Z,2.60
2022-10-09T09:28:20.692Z,2.50
2022-10-09T09:30:58.760Z,2.57
2022-10-09T09:33:49.802Z,2.60
2022-10-09T09:36:20.881Z,2.80
2022-10-09T09:39:28.622Z,2.40
2022-10-09T09:41:36.004Z,2.60
2022-10-09T09:44:02.804Z,2.57
2022-10-09T09:46:30.744Z,2.50
2022-10-09T09:48:57.603Z,2.20
2022-10-09T09:51:31.969Z,2.50
2022-10-09T09:54:05.143Z,2.23
2022-10-09T09:57:10.489Z,2.10
2022-10-09T09:59:36.602Z,2.50
2022-10-09T10:02:09.843Z,1.90
2022-10-09T10:04:43.121Z,2.30
2022-10-09T10:07:10.074Z,2.00
2022-10-09T10:09:37.463Z,2.20
2022-10-09T10:12:09.752Z,1.90
2022-10-09T10:14:37.338Z,2.43
2022-10-09T10:17:03.992Z,2.30
2022-10-09T10:19:32.966Z,2.20
2022-10-09T10:22:00.915Z,1.80
2022-10-09T10:24:41.634Z,2.10
2022-10-09T10:27:22.798Z,2.07
2022-10-09T10:29:51.014Z,2.30
2022-10-09T10:32:21.849Z,2.40
2022-10-09T10:34:54.648Z,2.00
2022-10-09T10:37:21.798Z,2.10
2022-10-09T10:39:59.490Z,1.83
2022-10-09T10:42:32.775Z,2.00
2022-10-09T10:45:17.161Z,2.00
2022-10-09T10:47:54.528Z,2.07
2022-10-09T10:50:23.996Z,1.80
2022-10-09T10:53:15.296Z,2.03
2022-10-09T10:55:54.605Z,2.10
2022-10-09T10:58:26.941Z,2.13
2022-10-09T11:01:17.680Z,1.90
2022-10-09T11:03:57.078Z,2.30
2022-10-09T11:06:26.201Z,2.00
2022-10-09T11:08:56.274Z,2.07
2022-10-09T11:11:23.626Z,1.80
2022-10-09T11:13:59.337Z,1.97
2022-10-09T11:16:34.467Z,2.00
2022-10-09T11:19:08.647Z,1.90
2022-10-09T11:21:54.364Z,2.00
2022-10-09T11:24:32.726Z,2.03
2022-10-09T11:27:09.535Z,1.87
2022-10-09T11:29:36.938Z,1.80
2022-10-09T11:32:20.740Z,1.60
2022-10-09T11:35:14.133Z,1.60
2022-10-09T11:37:43.024Z,1.70
2022-10-09T11:40:22.872Z,1.60
2022-10-09T11:42:56.162Z,1.60
2022-10-09T11:45:30.520Z,1.57
2022-10-09T11:48:09.018Z,1.50
2022-10-09T11:50:57.459Z,1.47
2022-10-09T11:53:30.759Z,1.27
2022-10-09T11:56:04.587Z,1.73
2022-10-09T11:58:32.008Z,1.20
2022-10-09T12:01:10.464Z,1.30
2022-10-09T12:03:41.709Z,1.60
2022-10-09T12:06:19.422Z,1.83
2022-10-09T12:08:58.290Z,1.47
2022-10-09T12:11:25.614Z,1.30
2022-10-09T12:13:53.934Z,1.40
2022-10-09T12:16:33.086Z,1.20
2022-10-09T12:19:00.950Z,1.33
2022-10-09T12:21:38.880Z,1.00
2022-10-09T12:24:06.989Z,1.13
2022-10-09T12:26:34.134Z,0.90
2022-10-09T12:29:03.026Z,0.97
2022-10-09T12:31:38.764Z,1.20
2022-10-09T12:34:06.681Z,1.10
2022-10-09T12:36:34.246Z,1.27
2022-10-09T12:39:20.720Z,1.20
2022-10-09T12:41:48.875Z,1.30
2022-10-09T12:44:29.139Z,1.03
2022-10-09T12:46:59.014Z,1.53
2022-10-09T12:49:25.993Z,1.30
2022-10-09T12:52:00.545Z,1.30
2022-10-09T12:54:27.947Z,1.30
2022-10-09T12:56:55.630Z,1.10
2022-10-09T12:59:26.159Z,1.00
2022-10-09T13:01:55.047Z,1.23
2022-10-09T13:04:26.412Z,1.40
2022-10-09T13:06:54.004Z,1.30
2022-10-09T13:09:41.047Z,1.00
2022-10-09T13:12:09.409Z,1.20
2022-10-09T13:14:41.182Z,1.00
2022-10-09T13:17:22.673Z,1.07
2022-10-09T13:19:54.624Z,1.20
2022-10-09T13:22:24.788Z,1.07
2022-10-09T13:24:53.739Z,1.40
2022-10-09T13:27:21.519Z,1.00
2022-10-09T13:29:48.593Z,1.00
2022-10-09T13:32:17.008Z,1.00
2022-10-09T13:34:44.230Z,1.00
2022-10-09T13:37:13.203Z,1.30
2022-10-09T13:39:40.739Z,1.27
2022-10-09T13:42:07.756Z,1.20
2022-10-09T13:44:34.830Z,1.30
2022-10-09T13:47:02.507Z,1.30
2022-10-09T13:49:29.403Z,1.27
2022-10-09T13:51:56.430Z,1.30
2022-10-09T13:54:25.895Z,1.10
2022-10-09T13:56:52.562Z,1.40
2022-10-09T13:59:19.413Z,1.53
2022-10-09T14:01:47.046Z,1.10
2022-10-09T14:04:13.782Z,1.30
2022-10-09T14:06:40.619Z,1.50
2022-10-09T14:09:08.397Z,1.20
2022-10-09T14:11:35.130Z,1.40
2022-10-09T14:14:02.762Z,1.30
2022-10-09T14:16:29.951Z,1.20
2022-10-09T14:19:00.791Z,1.70
2022-10-09T14:21:28.233Z,1.63
2022-10-09T14:26:32.268Z,1.23
2022-10-09T14:29:00.702Z,1.30
2022-10-09T14:31:30.459Z,1.37
2022-10-09T14:34:06.164Z,1.40
2022-10-09T14:36:33.370Z,1.40
2022-10-09T14:39:01.488Z,1.43
2022-10-09T14:41:32.181Z,1.47
2022-10-09T14:44:01.600Z,1.30
2022-10-09T14:46:28.886Z,1.27
2022-10-09T14:48:56.189Z,1.10
2022-10-09T14:51:24.693Z,1.23
2022-10-09T14:53:55.256Z,1.43
2022-10-09T14:56:22.108Z,1.37
2022-10-09T14:58:49.141Z,1.63
2022-10-09T15:01:16.880Z,1.47
2022-10-09T15:03:44.733Z,1.40
2022-10-09T15:06:12.179Z,1.60
2022-10-09T15:08:40.369Z,1.30
2022-10-09T15:11:11.161Z,1.30
2022-10-09T15:13:39.071Z,1.30
2022-10-09T15:16:08.609Z,1.40
2022-10-09T15:18:35.506Z,1.30
2022-10-09T15:21:02.383Z,0.93
2022-10-09T15:23:30.027Z,1.50
2022-10-09T15:25:57.667Z,1.20
2022-10-09T15:28:25.098Z,1.40
2022-10-09T15:30:53.135Z,1.63
2022-10-09T15:33:24.152Z,1.67
2022-10-09T15:35:51.069Z,1.30
2022-10-09T15:38:18.600Z,1.20
2022-10-09T15:40:49.604Z,1.30
2022-10-09T15:43:17.935Z,1.30
2022-10-09T15:45:44.852Z,1.60
2022-10-09T15:48:17.038Z,1.63
2022-10-09T15:50:46.440Z,2.00
2022-10-09T15:53:15.140Z,1.40
2022-10-09T15:55:46.409Z,1.53
2022-10-09T15:58:14.075Z,1.37
2022-10-09T16:00:41.979Z,1.50
2022-10-09T16:06:01.229Z,1.60
2022-10-09T16:08:28.560Z,1.83
2022-10-09T16:10:55.887Z,1.87
2022-10-09T16:13:23.773Z,1.90
2022-10-09T16:15:51.826Z,2.00
2022-10-09T16:18:20.904Z,2.03
2022-10-09T16:20:48.397Z,2.37
2022-10-09T16:23:16.856Z,2.33
2022-10-09T16:25:44.020Z,2.40
2022-10-09T16:28:11.596Z,2.20
2022-10-09T16:30:42.530Z,2.30
2022-10-09T16:33:12.832Z,2.10
2022-10-09T16:35:40.300Z,2.47
2022-10-09T16:38:07.345Z,2.00
2022-10-09T16:41:00.955Z,1.97
2022-10-09T16:43:23.040Z,1.70
2022-10-09T16:45:50.038Z,1.90
2022-10-09T16:48:18.178Z,1.73
2022-10-09T16:50:48.272Z,1.77
2022-10-09T16:53:16.468Z,2.10
2022-10-09T16:55:43.643Z,3.17
2022-10-09T16:58:13.345Z,3.30
2022-10-09T17:00:40.574Z,2.80
2022-10-09T17:03:08.962Z,1.83
2022-10-09T17:05:39.638Z,1.70
2022-10-09T17:08:06.846Z,1.50
2022-10-09T17:10:33.558Z,1.70
2022-10-09T17:13:00.282Z,1.70
2022-10-09T17:15:29.689Z,1.37
2022-10-09T17:17:56.681Z,1.77
2022-10-09T17:23:08.891Z,1.90
2022-10-09T17:25:59.796Z,1.63
2022-10-09T17:28:27.714Z,1.90
2022-10-09T17:30:54.621Z,1.70
2022-10-09T17:33:22.738Z,1.80
2022-10-09T17:35:49.797Z,1.70
2022-10-09T17:38:16.797Z,1.50
2022-10-09T17:40:46.294Z,1.40
2022-10-09T17:43:13.610Z,1.87
2022-10-09T17:45:41.605Z,1.57
2022-10-09T17:48:15.530Z,1.47
2022-10-09T17:50:50.617Z,1.63
2022-10-09T17:53:19.770Z,1.70
2022-10-09T17:55:46.665Z,1.70
2022-10-09T18:01:05.825Z,1.40
2022-10-09T18:03:32.600Z,1.63
2022-10-09T18:06:02.375Z,1.77
2022-10-09T18:08:31.538Z,1.73
2022-10-09T18:10:59.596Z,2.00
2022-10-09T18:13:26.598Z,1.60
2022-10-09T18:15:53.718Z,2.37
2022-10-09T18:18:21.804Z,1.80
2022-10-09T18:20:49.295Z,1.57
2022-10-09T18:23:22.372Z,2.10
2022-10-09T18:25:50.475Z,1.87
2022-10-09T18:28:22.062Z,2.00
2022-10-09T18:30:49.498Z,1.80
2022-10-09T18:33:17.832Z,2.07
2022-10-09T18:35:46.825Z,1.80
2022-10-09T18:38:14.031Z,1.67
2022-10-09T18:40:45.667Z,1.60
2022-10-09T18:43:16.440Z,2.00
2022-10-09T18:45:46.644Z,2.10
2022-10-09T18:48:14.671Z,1.97
2022-10-09T18:50:41.713Z,1.80
2022-10-09T18:53:09.743Z,1.87
2022-10-09T18:55:37.311Z,1.83
2022-10-09T18:58:05.135Z,1.90
2022-10-09T19:00:32.066Z,2.13
2022-10-09T19:02:59.429Z,1.80
2022-10-09T19:05:30.671Z,1.97
2022-10-09T19:07:58.010Z,1.70
2022-10-09T19:10:25.610Z,1.90
2022-10-09T19:49:20.395Z,2.00
2022-10-09T19:51:50.952Z,2.27
2022-10-09T19:54:20.108Z,2.37
2022-10-09T19:56:47.878Z,2.33
2022-10-09T19:59:27.615Z,2.40
